Time;durP1;ratioP1;P1;durP2;ratioP2;P2;SDS_P1;SDS_P2;PMS_P1;PMS_P2;Temp;Humidity;BMP_temperature;BMP_pressure;BME280_temperature;BME280_humidity;BME280_pressure;Samples;Min_cycle;Max_cycle;Signal;HPM_P1;HPM_P2
2023/06/18 00:00:59;;;;;;;;;25.57;23.43;;;;;;;;1974284;28;3591902;-76
2023/06/18 00:02:10;;;;;;;;;19.20;18.40;;;;;;;;1958409;28;2843097;-76
2023/06/18 00:03:23;;;;;;;;;19.71;19.57;;;;;;;;2000358;28;3580441;-78
2023/06/18 00:04:34;;;;;;;;;24.50;21.50;;;;;;;;1949589;28;2506517;-77
2023/06/18 00:05:47;;;;;;;;;26.29;21.57;;;;;;;;1975462;28;3591957;-78
2023/06/18 00:07:00;;;;;;;;;22.71;18.71;;;;;;;;1966250;28;3587727;-78
2023/06/18 00:08:12;;;;;;;;;20.00;19.00;;;;;;;;1965902;28;3578404;-78
2023/06/18 00:09:25;;;;;;;;;22.71;20.86;;;;;;;;1973876;28;3583598;-77
2023/06/18 00:10:38;;;;;;;;;19.29;19.29;;;;;;;;1973060;28;3583668;-77
2023/06/18 00:11:52;;;;;;;;;24.63;21.50;;;;;;;;1970150;28;3582815;-77
2023/06/18 00:13:03;;;;;;;;;22.00;21.00;;;;;;;;1975213;28;3582843;-77
2023/06/18 00:14:16;;;;;;;;;20.33;18.00;;;;;;;;1964938;28;3566892;-77
2023/06/18 00:15:27;;;;;;;;;16.60;13.80;;;;;;;;1960976;28;3552318;-79
2023/06/18 00:16:40;;;;;;;;;20.29;20.14;;;;;;;;2005514;28;3586651;-78
2023/06/18 00:17:52;;;;;;;;;22.20;20.80;;;;;;;;1978971;28;3573145;-78
2023/06/18 00:19:05;;;;;;;;;21.14;20.00;;;;;;;;1997676;28;3582871;-78
2023/06/18 00:20:17;;;;;;;;;21.00;20.20;;;;;;;;1973866;28;3575556;-78
2023/06/18 00:21:28;;;;;;;;;21.00;19.80;;;;;;;;1982828;28;2838832;-78
2023/06/18 00:22:41;;;;;;;;;19.14;18.57;;;;;;;;1994337;28;3583566;-78
2023/06/18 00:23:53;;;;;;;;;26.33;21.00;;;;;;;;1947195;28;3585609;-78
2023/06/18 00:25:06;;;;;;;;;23.14;21.43;;;;;;;;1976939;28;3581474;-78
2023/06/18 00:26:18;;;;;;;;;21.00;19.00;;;;;;;;1966559;28;3584893;-78
2023/06/18 00:27:30;;;;;;;;;19.20;17.60;;;;;;;;1981149;28;3573157;-78
2023/06/18 00:28:41;;;;;;;;;21.33;16.33;;;;;;;;1953889;28;3571122;-78
2023/06/18 00:29:53;;;;;;;;;20.40;18.20;;;;;;;;1978686;28;3566848;-78
2023/06/18 00:31:05;;;;;;;;;19.40;17.20;;;;;;;;1980561;28;3567939;-78
2023/06/18 00:32:17;;;;;;;;;24.00;21.20;;;;;;;;1978101;28;3577276;-78
2023/06/18 00:33:29;;;;;;;;;22.20;19.60;;;;;;;;1963677;28;2837283;-78
2023/06/18 00:34:41;;;;;;;;;20.33;20.33;;;;;;;;1975411;28;3576238;-78
2023/06/18 00:35:56;;;;;;;;;20.67;18.33;;;;;;;;1952060;28;3571066;-78
2023/06/18 00:37:09;;;;;;;;;20.33;19.33;;;;;;;;1951415;28;3587727;-78
2023/06/18 00:38:20;;;;;;;;;22.00;17.33;;;;;;;;1952529;28;3571594;-78
2023/06/18 00:39:32;;;;;;;;;22.20;20.20;;;;;;;;1979720;28;3577303;-78
2023/06/18 00:40:47;;;;;;;;;19.86;18.29;;;;;;;;1974553;28;3574183;-77
2023/06/18 00:41:58;;;;;;;;;21.67;20.33;;;;;;;;1952683;28;3578429;-77
2023/06/18 00:43:09;;;;;;;;;19.80;19.60;;;;;;;;1962861;28;2830518;-77
2023/06/18 00:44:20;;;;;;;;;21.33;19.00;;;;;;;;1988699;28;3583570;-78
2023/06/18 00:45:34;;;;;;;;;23.00;20.67;;;;;;;;1969408;28;3578381;-78
2023/06/18 00:46:46;;;;;;;;;22.50;20.00;;;;;;;;1954976;28;2832546;-78
2023/06/18 00:47:57;;;;;;;;;23.00;22.00;;;;;;;;1951471;28;3573142;-78
2023/06/18 00:49:09;;;;;;;;;22.40;19.00;;;;;;;;1978492;28;3570056;-78
2023/06/18 00:50:21;;;;;;;;;20.40;20.20;;;;;;;;1978788;28;3571039;-78
2023/06/18 00:51:34;;;;;;;;;20.57;19.14;;;;;;;;1973133;28;3572120;-78
2023/06/18 00:52:47;;;;;;;;;22.00;19.67;;;;;;;;1953996;28;3567894;-78
2023/06/18 00:53:58;;;;;;;;;20.67;17.67;;;;;;;;1951643;28;3563425;-80
2023/06/18 00:55:12;;;;;;;;;21.88;21.38;;;;;;;;1971357;28;3586226;-79
2023/06/18 00:56:25;;;;;;;;;22.33;20.00;;;;;;;;1974984;28;3571073;-79
2023/06/18 00:57:37;;;;;;;;;20.33;17.67;;;;;;;;1951588;28;3575247;-79
2023/06/18 00:58:48;;;;;;;;;22.67;19.00;;;;;;;;1951346;28;3576942;-78
2023/06/18 01:00:04;;;;;;;;;23.71;22.86;;;;;;;;1976279;28;3592190;-78
2023/06/18 01:01:15;;;;;;;;;20.67;18.67;;;;;;;;1951608;28;3563775;-78
2023/06/18 01:02:28;;;;;;;;;20.00;18.33;;;;;;;;1967489;28;3574187;-78
2023/06/18 01:03:39;;;;;;;;;19.00;19.00;;;;;;;;1953981;28;2838881;-78
2023/06/18 01:04:55;;;;;;;;;21.67;19.33;;;;;;;;1950337;28;3581451;-78
2023/06/18 01:06:06;;;;;;;;;18.00;16.67;;;;;;;;1950301;28;3557473;-78
2023/06/18 01:07:19;;;;;;;;;23.20;23.20;;;;;;;;1964239;28;3580401;-77
2023/06/18 01:08:33;;;;;;;;;22.67;20.67;;;;;;;;1951798;28;3574227;-77
2023/06/18 01:09:45;;;;;;;;;18.00;17.00;;;;;;;;1952492;28;3561727;-76
2023/06/18 01:11:03;;;;;;;;;23.33;20.67;;;;;;;;1975728;28;3570029;-74
2023/06/18 01:12:15;;;;;;;;;21.33;20.33;;;;;;;;1951539;28;3576625;-74
2023/06/18 01:13:30;;;;;;;;;24.33;22.67;;;;;;;;1939866;28;3580441;-76
2023/06/18 01:14:50;;;;;;;;;25.00;22.00;;;;;;;;1947572;28;2842970;-80
2023/06/18 01:16:03;;;;;;;;;25.33;23.33;;;;;;;;1951429;28;3583940;-80
2023/06/18 01:17:17;;;;;;;;;27.33;24.33;;;;;;;;1951940;28;3593966;-80
2023/06/18 01:18:29;;;;;;;;;26.00;24.00;;;;;;;;1952893;28;3600248;-80
2023/06/18 01:19:57;;;;;;;;;28.50;22.50;;;;;;;;1953867;28;2863830;-80
2023/06/18 01:21:13;;;;;;;;;25.00;23.33;;;;;;;;1952456;28;3587739;-80
2023/06/18 01:22:30;;;;;;;;;20.00;19.33;;;;;;;;1952749;28;3581463;-80
2023/06/18 01:23:49;;;;;;;;;26.67;23.67;;;;;;;;1952640;28;3604466;-80
2023/06/18 01:25:02;;;;;;;;;26.00;24.33;;;;;;;;1944792;28;3602328;-80
2023/06/18 01:26:12;;;;;;;;;19.00;19.00;;;;;;;;1952861;28;2835715;-80
2023/06/18 01:27:27;;;;;;;;;26.80;26.00;;;;;;;;1968933;28;3587692;-82
2023/06/18 01:28:40;;;;;;;;;27.67;25.67;;;;;;;;1975194;28;3606426;-83
2023/06/18 01:29:51;;;;;;;;;27.00;23.67;;;;;;;;1951148;28;3589847;-83
2023/06/18 01:31:03;;;;;;;;;29.33;26.00;;;;;;;;1955401;28;3600267;-82
2023/06/18 01:32:17;;;;;;;;;29.25;25.00;;;;;;;;1975262;28;3606494;-82
2023/06/18 01:33:28;;;;;;;;;27.00;26.00;;;;;;;;1964603;28;3599206;-82
2023/06/18 01:34:40;;;;;;;;;27.00;24.50;;;;;;;;1955831;28;2866968;-82
2023/06/18 01:35:52;;;;;;;;;25.40;23.00;;;;;;;;1960247;28;3587712;-83
2023/06/18 01:37:27;;;;;;;;;26.00;26.00;;;;;;;;1988574;28;3592940;-83
2023/06/18 01:38:43;;;;;;;;;27.50;26.00;;;;;;;;1947054;28;2853374;-82
2023/06/18 01:40:06;;;;;;;;;24.00;22.00;;;;;;;;1953813;28;3571054;-84
2023/06/18 01:41:22;;;;;;;;;25.00;22.50;;;;;;;;1958904;28;2850277;-83
2023/06/18 01:42:36;;;;;;;;;26.67;24.00;;;;;;;;1954068;28;3573149;-83
2023/06/18 01:44:00;;;;;;;;;23.00;22.00;;;;;;;;1957712;28;3570032;-84
2023/06/18 01:45:18;;;;;;;;;25.50;24.50;;;;;;;;1956126;28;2844036;-83
2023/06/18 01:46:29;;;;;;;;;21.00;20.00;;;;;;;;1952398;28;3568991;-83
2023/06/18 01:47:42;;;;;;;;;28.33;26.67;;;;;;;;1969329;28;3599209;-83
2023/06/18 01:49:20;;;;;;;;;25.50;25.00;;;;;;;;1955881;28;2856591;-83
2023/06/18 01:50:34;;;;;;;;;25.00;24.00;;;;;;;;1951488;28;3584651;-84
2023/06/18 01:51:45;;;;;;;;;25.67;24.33;;;;;;;;1953680;28;3585641;-83
2023/06/18 01:52:58;;;;;;;;;23.00;23.00;;;;;;;;1964194;28;3592936;-82
2023/06/18 01:54:10;;;;;;;;;25.00;24.00;;;;;;;;1952867;28;3592948;-82
2023/06/18 01:55:22;;;;;;;;;23.00;23.00;;;;;;;;1954677;28;3585721;-82
2023/06/18 01:56:33;;;;;;;;;22.67;22.67;;;;;;;;1957630;28;3577332;-81
2023/06/18 01:57:45;;;;;;;;;29.33;26.33;;;;;;;;1969509;28;3589835;-81
2023/06/18 01:58:59;;;;;;;;;29.88;25.63;;;;;;;;1979441;28;3590825;-81
2023/06/18 02:00:10;;;;;;;;;29.00;25.67;;;;;;;;1976790;28;3599225;-81
2023/06/18 02:01:23;;;;;;;;;27.00;25.00;;;;;;;;1969741;28;3592940;-81
2023/06/18 02:02:34;;;;;;;;;30.20;26.20;;;;;;;;1963563;28;3599154;-81
2023/06/18 02:03:47;;;;;;;;;27.80;26.00;;;;;;;;1977613;28;3589790;-81
2023/06/18 02:04:58;;;;;;;;;23.33;22.67;;;;;;;;1961513;28;3579391;-81
2023/06/18 02:06:11;;;;;;;;;24.71;23.00;;;;;;;;1976347;28;3586650;-81
2023/06/18 02:07:24;;;;;;;;;23.86;21.43;;;;;;;;1975414;28;3582543;-83
2023/06/18 02:08:36;;;;;;;;;24.00;23.33;;;;;;;;1969609;28;3589756;-77
2023/06/18 02:09:48;;;;;;;;;25.00;23.60;;;;;;;;1981400;28;3596014;-79
2023/06/18 02:11:01;;;;;;;;;29.60;27.80;;;;;;;;1979782;28;3591863;-79
2023/06/18 02:12:11;;;;;;;;;27.50;24.50;;;;;;;;1956248;28;2852694;-79
2023/06/18 02:13:23;;;;;;;;;32.60;27.60;;;;;;;;1965075;28;3605397;-78
2023/06/18 02:14:35;;;;;;;;;31.00;29.20;;;;;;;;1982349;28;3601246;-78
2023/06/18 02:15:48;;;;;;;;;27.71;24.29;;;;;;;;1974534;28;3588773;-78
2023/06/18 02:17:02;;;;;;;;;32.63;27.88;;;;;;;;1962159;28;3605471;-78
2023/06/18 02:18:14;;;;;;;;;27.33;26.00;;;;;;;;1958958;28;3596486;-78
2023/06/18 02:19:25;;;;;;;;;30.60;25.80;;;;;;;;1966821;28;3594985;-78
2023/06/18 02:20:38;;;;;;;;;27.40;26.60;;;;;;;;1981437;28;3596396;-78
2023/06/18 02:21:49;;;;;;;;;28.50;26.00;;;;;;;;1956102;28;2857544;-78
2023/06/18 02:23:03;;;;;;;;;32.00;28.00;;;;;;;;1972203;28;3592904;-78
2023/06/18 02:24:15;;;;;;;;;29.00;27.00;;;;;;;;1977780;28;2844398;-78
2023/06/18 02:25:32;;;;;;;;;28.50;27.00;;;;;;;;1954616;28;2856503;-78
2023/06/18 02:26:42;;;;;;;;;29.50;26.50;;;;;;;;1954782;28;2840891;-78
2023/06/18 02:27:58;;;;;;;;;33.40;26.80;;;;;;;;1977523;28;3611698;-78
2023/06/18 02:29:08;;;;;;;;;30.00;26.00;;;;;;;;1953105;28;2864808;-78
2023/06/18 02:30:20;;;;;;;;;31.60;27.00;;;;;;;;1981554;28;3600196;-78
2023/06/18 02:31:32;;;;;;;;;31.00;30.40;;;;;;;;1979683;28;3576243;-78
2023/06/18 02:32:46;;;;;;;;;29.00;25.00;;;;;;;;1981307;28;3590857;-79
2023/06/18 02:33:56;;;;;;;;;29.50;29.00;;;;;;;;1955504;28;2841900;-79
2023/06/18 02:35:08;;;;;;;;;32.80;29.80;;;;;;;;1981903;28;3584030;-79
2023/06/18 02:36:19;;;;;;;;;29.00;27.80;;;;;;;;1962076;28;2836845;-79
2023/06/18 02:37:30;;;;;;;;;33.00;31.00;;;;;;;;1978479;28;2860679;-77
2023/06/18 02:38:42;;;;;;;;;34.80;29.80;;;;;;;;1969482;28;3584580;-76
2023/06/18 02:39:54;;;;;;;;;29.20;27.20;;;;;;;;1976981;28;3597111;-75
2023/06/18 02:41:05;;;;;;;;;29.00;28.00;;;;;;;;1955878;28;2841888;-76
2023/06/18 02:42:20;;;;;;;;;34.20;30.60;;;;;;;;1981435;28;3582914;-79
2023/06/18 02:43:32;;;;;;;;;31.00;29.00;;;;;;;;1945247;28;2833591;-80
2023/06/18 02:44:45;;;;;;;;;24.33;23.67;;;;;;;;1967588;28;3586702;-80
2023/06/18 02:45:55;;;;;;;;;36.00;30.00;;;;;;;;1955520;28;2850269;-79
2023/06/18 02:47:08;;;;;;;;;36.00;31.40;;;;;;;;1978302;28;3590821;-79
2023/06/18 02:48:19;;;;;;;;;33.20;28.60;;;;;;;;1984247;28;3593942;-78
2023/06/18 02:49:33;;;;;;;;;29.20;27.60;;;;;;;;1972567;28;3595011;-78
2023/06/18 02:50:43;;;;;;;;;33.50;29.50;;;;;;;;1956220;28;2846091;-80
2023/06/18 02:51:55;;;;;;;;;29.80;29.00;;;;;;;;1981133;28;3585610;-80
2023/06/18 02:53:07;;;;;;;;;35.00;32.00;;;;;;;;1978833;28;3604709;-81
2023/06/18 02:54:20;;;;;;;;;34.00;29.00;;;;;;;;1978819;28;3602275;-80
2023/06/18 02:55:33;;;;;;;;;34.00;31.00;;;;;;;;1955718;28;2847167;-83
2023/06/18 02:56:44;;;;;;;;;32.00;29.33;;;;;;;;1954802;28;2837762;-83
2023/06/18 02:57:55;;;;;;;;;30.00;28.00;;;;;;;;1979766;28;2845013;-82
2023/06/18 02:59:06;;;;;;;;;36.00;32.00;;;;;;;;1957777;28;2854415;-82
2023/06/18 03:00:19;;;;;;;;;35.00;30.40;;;;;;;;1982030;28;3593941;-81
2023/06/18 03:01:31;;;;;;;;;32.00;30.00;;;;;;;;1956292;28;2854387;-80
2023/06/18 03:02:42;;;;;;;;;37.00;30.00;;;;;;;;1957232;28;2861695;-81
2023/06/18 03:03:54;;;;;;;;;36.00;31.40;;;;;;;;1972989;28;3586684;-80
2023/06/18 03:05:06;;;;;;;;;29.60;25.80;;;;;;;;1979564;28;3604351;-80
2023/06/18 03:06:17;;;;;;;;;35.80;31.60;;;;;;;;1974075;28;3567905;-81
2023/06/18 03:07:30;;;;;;;;;30.80;28.00;;;;;;;;1980766;28;3590152;-80
2023/06/18 03:08:42;;;;;;;;;32.40;30.00;;;;;;;;1970786;28;3572088;-80
2023/06/18 03:09:53;;;;;;;;;28.80;27.60;;;;;;;;1981153;28;3570028;-80
2023/06/18 03:11:05;;;;;;;;;32.00;30.00;;;;;;;;1991187;28;3581470;-80
2023/06/18 03:12:17;;;;;;;;;32.80;31.40;;;;;;;;2002393;28;3582489;-80
2023/06/18 03:13:29;;;;;;;;;28.80;28.80;;;;;;;;1980201;28;3587745;-80
2023/06/18 03:14:41;;;;;;;;;32.60;30.20;;;;;;;;1974388;28;3593947;-79
2023/06/18 03:15:53;;;;;;;;;35.80;31.80;;;;;;;;1980371;28;3583538;-79
2023/06/18 03:17:05;;;;;;;;;28.40;28.40;;;;;;;;1980171;28;3583547;-80
2023/06/18 03:18:17;;;;;;;;;38.20;32.80;;;;;;;;1974578;28;3608529;-80
2023/06/18 03:19:29;;;;;;;;;36.40;30.60;;;;;;;;1982032;28;3596014;-79
2023/06/18 03:20:42;;;;;;;;;32.80;30.40;;;;;;;;1973950;28;3585621;-79
2023/06/18 03:21:53;;;;;;;;;30.50;28.50;;;;;;;;1955706;28;2846066;-79
2023/06/18 03:23:05;;;;;;;;;32.00;29.60;;;;;;;;1971860;28;3575228;-79
2023/06/18 03:24:17;;;;;;;;;37.80;30.20;;;;;;;;1963548;28;3602263;-78
2023/06/18 03:25:27;;;;;;;;;33.50;30.50;;;;;;;;1956658;28;2849196;-79
2023/06/18 03:26:41;;;;;;;;;32.60;30.00;;;;;;;;1982885;28;3584564;-78
2023/06/18 03:27:51;;;;;;;;;32.00;29.50;;;;;;;;1955231;28;2853415;-78
2023/06/18 03:29:03;;;;;;;;;34.80;30.40;;;;;;;;1979146;28;3581463;-77
2023/06/18 03:30:15;;;;;;;;;33.60;31.00;;;;;;;;1969977;28;3579402;-77
2023/06/18 03:31:27;;;;;;;;;32.00;30.00;;;;;;;;1972279;28;3580394;-76
2023/06/18 03:32:39;;;;;;;;;31.80;29.60;;;;;;;;1981169;28;3589775;-76
2023/06/18 03:33:51;;;;;;;;;33.80;32.00;;;;;;;;1948801;28;3601318;-78
2023/06/18 03:35:04;;;;;;;;;37.40;30.80;;;;;;;;1974360;28;3605424;-79
2023/06/18 03:36:17;;;;;;;;;30.50;28.00;;;;;;;;1956484;28;2837757;-80
2023/06/18 03:37:27;;;;;;;;;33.00;29.50;;;;;;;;1955691;28;2847101;-80
2023/06/18 03:38:40;;;;;;;;;28.80;25.20;;;;;;;;1975528;28;3600215;-80
2023/06/18 03:39:51;;;;;;;;;20.67;18.67;;;;;;;;1952527;28;3570076;-80
2023/06/18 03:41:04;;;;;;;;;26.43;26.00;;;;;;;;1979458;28;3591875;-80
2023/06/18 03:42:16;;;;;;;;;22.40;20.00;;;;;;;;1978315;28;3577297;-80
2023/06/18 03:43:29;;;;;;;;;18.40;17.00;;;;;;;;1988724;28;2829418;-79
2023/06/18 03:44:40;;;;;;;;;19.67;18.33;;;;;;;;1975197;28;3567905;-79
2023/06/18 03:45:52;;;;;;;;;21.60;17.20;;;;;;;;1974864;28;3559598;-79
2023/06/18 03:47:04;;;;;;;;;16.20;13.60;;;;;;;;2003904;28;3538767;-77
2023/06/18 03:48:16;;;;;;;;;12.40;12.20;;;;;;;;1996448;28;3531470;-77
2023/06/18 03:49:27;;;;;;;;;11.00;10.00;;;;;;;;2004926;28;1824772;-77
2023/06/18 03:50:38;;;;;;;;;16.00;13.60;;;;;;;;1958086;28;3534612;-77
2023/06/18 03:51:50;;;;;;;;;15.80;14.00;;;;;;;;2003738;28;3550191;-77
2023/06/18 03:53:02;;;;;;;;;15.29;13.86;;;;;;;;1997413;28;3536724;-77
2023/06/18 03:54:15;;;;;;;;;13.86;12.43;;;;;;;;1998008;28;2806474;-78
2023/06/18 03:55:25;;;;;;;;;13.00;10.00;;;;;;;;1981077;28;2791942;-77
2023/06/18 03:56:38;;;;;;;;;11.00;11.00;;;;;;;;2001354;28;3517979;-76
2023/06/18 03:57:51;;;;;;;;;11.60;11.40;;;;;;;;2008129;28;3513733;-80
2023/06/18 03:59:01;;;;;;;;;14.00;12.00;;;;;;;;1975818;28;2812756;-80
2023/06/18 04:00:12;;;;;;;;;12.75;12.75;;;;;;;;1979063;28;2793986;-80
2023/06/18 04:01:24;;;;;;;;;11.00;11.00;;;;;;;;1977533;28;2790447;-80
2023/06/18 04:02:35;;;;;;;;;12.00;10.00;;;;;;;;1980849;28;2785677;-80
2023/06/18 04:03:45;;;;;;;;;10.50;10.50;;;;;;;;1966158;28;2790916;-80
2023/06/18 04:04:57;;;;;;;;;11.00;11.00;;;;;;;;1974807;28;2790150;-80
2023/06/18 04:06:09;;;;;;;;;10.67;10.17;;;;;;;;1977074;28;2786715;-80
2023/06/18 04:07:21;;;;;;;;;9.33;9.33;;;;;;;;1975073;28;2779463;-79
2023/06/18 04:08:33;;;;;;;;;9.00;9.00;;;;;;;;1975466;28;2752388;-79
2023/06/18 04:09:46;;;;;;;;;9.50;8.67;;;;;;;;2009912;28;1819044;-79
2023/06/18 04:10:58;;;;;;;;;7.50;7.50;;;;;;;;1955782;28;2737769;-79
2023/06/18 04:12:08;;;;;;;;;11.00;7.67;;;;;;;;1977430;28;3485650;-79
2023/06/18 04:13:20;;;;;;;;;10.00;9.25;;;;;;;;1995608;28;1829513;-80
2023/06/18 04:14:30;;;;;;;;;8.00;8.00;;;;;;;;1980244;28;2750343;-80
2023/06/18 04:15:41;;;;;;;;;7.00;7.00;;;;;;;;1993712;28;2741936;-80
2023/06/18 04:16:52;;;;;;;;;8.00;7.00;;;;;;;;1981921;28;2736780;-80
2023/06/18 04:18:03;;;;;;;;;7.67;7.67;;;;;;;;1997677;28;2732590;-80
2023/06/18 04:19:14;;;;;;;;;7.00;7.00;;;;;;;;1996865;28;2735783;-80
2023/06/18 04:20:24;;;;;;;;;10.00;9.00;;;;;;;;1995222;28;2756614;-78
2023/06/18 04:21:37;;;;;;;;;8.00;6.33;;;;;;;;1996609;28;2736861;-79
2023/06/18 04:22:47;;;;;;;;;6.67;6.67;;;;;;;;1978990;28;2737781;-79
2023/06/18 04:23:58;;;;;;;;;9.00;8.00;;;;;;;;2003961;28;2747141;-76
2023/06/18 04:25:09;;;;;;;;;9.00;7.33;;;;;;;;2011898;28;1810730;-76
2023/06/18 04:26:19;;;;;;;;;9.00;8.00;;;;;;;;1972548;28;2746051;-75
2023/06/18 04:27:30;;;;;;;;;7.00;6.50;;;;;;;;1993393;28;2733611;-75
2023/06/18 04:28:41;;;;;;;;;9.00;7.50;;;;;;;;2000056;28;2464896;-76
2023/06/18 04:29:52;;;;;;;;;7.33;7.33;;;;;;;;2009928;28;1816949;-82
2023/06/18 04:31:02;;;;;;;;;10.00;8.00;;;;;;;;1967388;28;2762133;-81
2023/06/18 04:32:13;;;;;;;;;8.00;6.33;;;;;;;;1975305;28;1814899;-81
2023/06/18 04:33:24;;;;;;;;;7.33;7.33;;;;;;;;1971614;28;2737758;-82
2023/06/18 04:34:35;;;;;;;;;7.67;6.00;;;;;;;;1997788;28;3455466;-82
2023/06/18 04:35:46;;;;;;;;;7.00;7.00;;;;;;;;1995873;28;2738946;-82
2023/06/18 04:36:57;;;;;;;;;7.00;6.00;;;;;;;;2003598;28;2734645;-80
2023/06/18 04:38:10;;;;;;;;;9.00;7.00;;;;;;;;2002944;28;2735675;-80
2023/06/18 04:39:21;;;;;;;;;5.33;5.33;;;;;;;;1957675;28;2750258;-78
2023/06/18 04:40:32;;;;;;;;;10.00;8.00;;;;;;;;2000966;28;2761782;-75
2023/06/18 04:41:42;;;;;;;;;6.00;6.00;;;;;;;;2000255;28;3450214;-74
2023/06/18 04:42:53;;;;;;;;;7.00;7.00;;;;;;;;2003750;28;2739189;-74
2023/06/18 04:44:04;;;;;;;;;8.00;7.00;;;;;;;;1984785;28;2746103;-76
2023/06/18 04:45:15;;;;;;;;;7.00;7.00;;;;;;;;1994709;28;2479476;-80
2023/06/18 04:46:26;;;;;;;;;8.00;7.67;;;;;;;;1994069;28;3453399;-80
2023/06/18 04:47:36;;;;;;;;;7.33;6.00;;;;;;;;1994212;28;2735757;-80
2023/06/18 04:48:47;;;;;;;;;9.00;7.00;;;;;;;;2011718;28;1824235;-80
2023/06/18 04:49:58;;;;;;;;;6.67;6.67;;;;;;;;1958081;28;2743485;-80
2023/06/18 04:51:09;;;;;;;;;8.00;8.00;;;;;;;;1996334;28;2736724;-80
2023/06/18 04:52:19;;;;;;;;;6.33;4.67;;;;;;;;1978152;28;2748142;-80
2023/06/18 04:53:31;;;;;;;;;10.00;8.00;;;;;;;;2000406;28;3460137;-80
2023/06/18 04:54:42;;;;;;;;;7.00;7.00;;;;;;;;1978568;28;2741920;-80
2023/06/18 04:55:53;;;;;;;;;7.00;7.00;;;;;;;;2008145;28;1827347;-81
2023/06/18 04:57:05;;;;;;;;;8.33;8.33;;;;;;;;1976447;28;2739818;-81
2023/06/18 04:58:15;;;;;;;;;6.25;6.25;;;;;;;;2007580;28;1820559;-78
2023/06/18 04:59:26;;;;;;;;;8.00;7.00;;;;;;;;1972501;28;1824313;-78
2023/06/18 05:00:37;;;;;;;;;7.00;7.00;;;;;;;;1974632;28;2739885;-78
2023/06/18 05:01:49;;;;;;;;;11.20;11.20;;;;;;;;2005889;28;3517903;-78
2023/06/18 05:03:00;;;;;;;;;9.50;9.00;;;;;;;;2006842;28;1819096;-78
2023/06/18 05:04:11;;;;;;;;;12.00;11.00;;;;;;;;1954451;28;2788245;-78
2023/06/18 05:05:23;;;;;;;;;16.00;15.00;;;;;;;;1955492;28;3547117;-78
2023/06/18 05:06:35;;;;;;;;;17.00;17.00;;;;;;;;1996482;28;3557558;-78
2023/06/18 05:07:46;;;;;;;;;17.80;16.80;;;;;;;;2000160;28;3563767;-78
2023/06/18 05:08:57;;;;;;;;;24.60;22.40;;;;;;;;1985716;28;2844432;-78
2023/06/18 05:10:09;;;;;;;;;23.00;21.00;;;;;;;;1981239;28;3578358;-79
2023/06/18 05:11:21;;;;;;;;;22.00;21.00;;;;;;;;1961731;28;3571066;-78
2023/06/18 05:12:32;;;;;;;;;24.40;22.60;;;;;;;;1964125;28;2838855;-78
2023/06/18 05:13:43;;;;;;;;;22.33;22.33;;;;;;;;1980860;28;3576243;-78
2023/06/18 05:14:55;;;;;;;;;28.40;27.00;;;;;;;;1967370;28;3599171;-78
2023/06/18 05:16:08;;;;;;;;;26.71;23.57;;;;;;;;1977690;28;3592917;-78
2023/06/18 05:17:21;;;;;;;;;23.29;22.71;;;;;;;;1976029;28;3583578;-78
2023/06/18 05:18:35;;;;;;;;;25.67;23.67;;;;;;;;1961352;28;3586683;-78
2023/06/18 05:19:45;;;;;;;;;27.50;26.50;;;;;;;;1950771;28;2851650;-78
2023/06/18 05:20:58;;;;;;;;;25.43;24.14;;;;;;;;1975357;28;3589795;-78
2023/06/18 05:22:09;;;;;;;;;24.60;22.00;;;;;;;;1961495;28;2845176;-78
2023/06/18 05:23:20;;;;;;;;;30.33;26.67;;;;;;;;1979196;28;3608552;-78
2023/06/18 05:24:32;;;;;;;;;29.20;29.00;;;;;;;;1962701;28;2846672;-78
2023/06/18 05:25:43;;;;;;;;;25.67;23.00;;;;;;;;1986124;28;3583554;-80
2023/06/18 05:26:55;;;;;;;;;27.80;24.20;;;;;;;;1970050;28;3593989;-79
2023/06/18 05:28:07;;;;;;;;;30.00;28.20;;;;;;;;1965897;28;3602323;-80
2023/06/18 05:29:19;;;;;;;;;26.80;26.00;;;;;;;;1974912;28;3598113;-80
2023/06/18 05:30:32;;;;;;;;;26.43;25.29;;;;;;;;1964583;28;3589764;-80
2023/06/18 05:31:47;;;;;;;;;32.38;29.38;;;;;;;;1969613;28;3612735;-80
2023/06/18 05:32:57;;;;;;;;;32.50;30.00;;;;;;;;1953126;28;2845042;-84
2023/06/18 05:34:09;;;;;;;;;33.00;26.20;;;;;;;;1975439;28;3616913;-78
2023/06/18 05:35:21;;;;;;;;;28.20;28.20;;;;;;;;1974415;28;3586655;-76
2023/06/18 05:36:33;;;;;;;;;29.20;25.80;;;;;;;;1981370;28;3590171;-76
2023/06/18 05:37:47;;;;;;;;;28.13;25.63;;;;;;;;1967771;28;3598124;-76
2023/06/18 05:39:02;;;;;;;;;21.50;19.00;;;;;;;;1971872;28;2838812;-76
2023/06/18 05:40:12;;;;;;;;;29.00;29.00;;;;;;;;1954612;28;2851367;-82
2023/06/18 05:41:24;;;;;;;;;24.80;24.00;;;;;;;;1977832;28;3585645;-81
2023/06/18 05:42:38;;;;;;;;;25.00;24.80;;;;;;;;1992303;28;3593986;-77
2023/06/18 05:43:50;;;;;;;;;25.67;24.67;;;;;;;;1957687;28;3584563;-76
2023/06/18 05:45:03;;;;;;;;;29.25;25.13;;;;;;;;1981936;28;3598112;-76
2023/06/18 05:46:14;;;;;;;;;27.00;23.00;;;;;;;;1969955;28;2855505;-76
2023/06/18 05:47:26;;;;;;;;;19.60;17.20;;;;;;;;1972075;28;3564796;-76
2023/06/18 05:48:38;;;;;;;;;29.60;28.40;;;;;;;;2005122;28;3596093;-76
2023/06/18 05:49:51;;;;;;;;;20.00;18.86;;;;;;;;1978054;28;3577330;-77
2023/06/18 05:51:02;;;;;;;;;24.00;20.80;;;;;;;;1960624;28;2844072;-77
2023/06/18 05:52:14;;;;;;;;;26.00;25.00;;;;;;;;1999154;28;3591898;-77
2023/06/18 05:53:27;;;;;;;;;22.57;20.71;;;;;;;;1965432;28;3583562;-77
2023/06/18 05:54:39;;;;;;;;;23.40;19.00;;;;;;;;1955534;28;2831527;-77
2023/06/18 05:55:50;;;;;;;;;21.67;20.67;;;;;;;;1974123;28;3571054;-77
2023/06/18 05:57:02;;;;;;;;;22.20;19.40;;;;;;;;1980715;28;3577260;-77
2023/06/18 05:58:14;;;;;;;;;19.33;19.33;;;;;;;;1970277;28;3585657;-77
2023/06/18 05:59:26;;;;;;;;;21.00;17.40;;;;;;;;1968942;28;3564787;-77
2023/06/18 06:00:38;;;;;;;;;22.80;20.60;;;;;;;;1993977;28;3574735;-77
2023/06/18 06:01:48;;;;;;;;;22.00;20.60;;;;;;;;1959495;28;2836784;-77
2023/06/18 06:03:00;;;;;;;;;16.40;16.20;;;;;;;;2001438;28;3552301;-76
2023/06/18 06:04:11;;;;;;;;;19.80;18.00;;;;;;;;1985643;28;2829439;-77
2023/06/18 06:05:23;;;;;;;;;20.40;18.60;;;;;;;;1982703;28;3566948;-76
2023/06/18 06:06:36;;;;;;;;;22.33;21.33;;;;;;;;1988556;28;3580932;-76
2023/06/18 06:07:47;;;;;;;;;19.00;16.67;;;;;;;;1950987;28;3566946;-75
2023/06/18 06:08:59;;;;;;;;;20.40;17.80;;;;;;;;1959557;28;2839918;-81
2023/06/18 06:10:17;;;;;;;;;18.00;16.33;;;;;;;;1978674;28;2833552;-80
2023/06/18 06:11:28;;;;;;;;;20.67;18.00;;;;;;;;1975763;28;3568979;-81
2023/06/18 06:12:41;;;;;;;;;23.86;22.14;;;;;;;;1975425;28;3587756;-81
2023/06/18 06:13:53;;;;;;;;;26.80;23.40;;;;;;;;1984843;28;3586654;-81
2023/06/18 06:15:04;;;;;;;;;17.60;17.60;;;;;;;;1986239;28;2834683;-79
2023/06/18 06:16:16;;;;;;;;;20.80;19.00;;;;;;;;1994666;28;3581912;-75
2023/06/18 06:17:27;;;;;;;;;24.80;21.40;;;;;;;;1986076;28;2832608;-75
2023/06/18 06:18:38;;;;;;;;;24.00;22.00;;;;;;;;1969145;28;2836748;-75
2023/06/18 06:19:50;;;;;;;;;21.67;20.67;;;;;;;;1962665;28;3578393;-75
2023/06/18 06:21:02;;;;;;;;;24.00;21.33;;;;;;;;1962387;28;3578366;-75
2023/06/18 06:22:15;;;;;;;;;24.75;21.13;;;;;;;;1971987;28;3588757;-75
2023/06/18 06:23:26;;;;;;;;;23.00;21.00;;;;;;;;1974428;28;3589859;-75
2023/06/18 06:24:38;;;;;;;;;19.80;17.80;;;;;;;;1980036;28;3568244;-75
2023/06/18 06:25:49;;;;;;;;;21.60;20.80;;;;;;;;1961721;28;2836772;-74
2023/06/18 06:27:01;;;;;;;;;20.33;19.67;;;;;;;;1979531;28;3577783;-74
2023/06/18 06:28:12;;;;;;;;;21.80;20.40;;;;;;;;1956305;28;2836760;-75
2023/06/18 06:29:23;;;;;;;;;24.20;20.60;;;;;;;;1975562;28;3586659;-74
2023/06/18 06:30:34;;;;;;;;;21.20;19.60;;;;;;;;1987966;28;2839882;-74
2023/06/18 06:31:46;;;;;;;;;18.00;18.00;;;;;;;;1976188;28;3575197;-74
2023/06/18 06:32:58;;;;;;;;;24.20;20.60;;;;;;;;1983306;28;3577316;-74
2023/06/18 06:34:08;;;;;;;;;20.40;19.20;;;;;;;;1962852;28;2836775;-75
2023/06/18 06:35:20;;;;;;;;;25.20;21.60;;;;;;;;1981242;28;3586646;-74
2023/06/18 06:36:32;;;;;;;;;21.67;19.67;;;;;;;;1988017;28;3565870;-74
2023/06/18 06:37:43;;;;;;;;;20.40;19.40;;;;;;;;1959514;28;2841966;-74
2023/06/18 06:38:55;;;;;;;;;24.00;21.40;;;;;;;;2003767;28;3576250;-74
2023/06/18 06:40:08;;;;;;;;;24.14;19.86;;;;;;;;1991741;28;3588837;-74
2023/06/18 06:41:19;;;;;;;;;16.67;15.00;;;;;;;;1949513;28;3550268;-75
2023/06/18 06:42:31;;;;;;;;;23.40;21.00;;;;;;;;2002217;28;3584587;-74
2023/06/18 06:43:45;;;;;;;;;25.50;21.63;;;;;;;;1978694;28;3582831;-74
2023/06/18 06:44:55;;;;;;;;;22.50;22.50;;;;;;;;1973350;28;2837770;-74
2023/06/18 06:46:08;;;;;;;;;23.60;19.80;;;;;;;;1978722;28;3583538;-75
2023/06/18 06:47:19;;;;;;;;;22.33;19.67;;;;;;;;1981691;28;3580441;-74
2023/06/18 06:48:32;;;;;;;;;20.86;20.57;;;;;;;;1976170;28;3575237;-74
2023/06/18 06:49:46;;;;;;;;;24.38;22.13;;;;;;;;1966357;28;3585645;-75
2023/06/18 06:50:57;;;;;;;;;19.67;18.00;;;;;;;;1960935;28;3571038;-74